sensor_id;sensor_type;location;lat;lon;timestamp;P1;durP1;ratioP1;P2;durP2;ratioP2
67768;SDS011;54569;52.018;5.584;2023-03-14T00:02:07;7.57;;;2.28;;
67768;SDS011;54569;52.018;5.584;2023-03-14T00:04:32;6.72;;;2.08;;
67768;SDS011;54569;52.018;5.584;2023-03-14T00:06:58;8.30;;;1.95;;
67768;SDS011;54569;52.018;5.584;2023-03-14T00:09:23;9.68;;;1.80;;
67768;SDS011;54569;52.018;5.584;2023-03-14T00:11:52;6.60;;;1.90;;
67768;SDS011;54569;52.018;5.584;2023-03-14T00:14:18;6.28;;;1.63;;
67768;SDS011;54569;52.018;5.584;2023-03-14T00:16:47;5.03;;;1.67;;
67768;SDS011;54569;52.018;5.584;2023-03-14T00:19:12;10.35;;;1.88;;
67768;SDS011;54569;52.018;5.584;2023-03-14T00:21:38;8.13;;;1.95;;
67768;SDS011;54569;52.018;5.584;2023-03-14T00:24:04;11.90;;;2.45;;
67768;SDS011;54569;52.018;5.584;2023-03-14T00:26:30;5.72;;;1.60;;
67768;SDS011;54569;52.018;5.584;2023-03-14T00:28:56;7.85;;;1.80;;
67768;SDS011;54569;52.018;5.584;2023-03-14T00:31:22;7.32;;;1.75;;
67768;SDS011;54569;52.018;5.584;2023-03-14T00:33:48;9.90;;;1.67;;
67768;SDS011;54569;52.018;5.584;2023-03-14T00:36:16;6.65;;;1.67;;
67768;SDS011;54569;52.018;5.584;2023-03-14T00:38:44;6.57;;;1.85;;
67768;SDS011;54569;52.018;5.584;2023-03-14T00:41:12;7.93;;;2.10;;
67768;SDS011;54569;52.018;5.584;2023-03-14T00:43:40;7.43;;;1.92;;
67768;SDS011;54569;52.018;5.584;2023-03-14T00:46:06;7.75;;;2.03;;
67768;SDS011;54569;52.018;5.584;2023-03-14T00:48:32;6.25;;;1.52;;
67768;SDS011;54569;52.018;5.584;2023-03-14T00:50:59;7.32;;;1.58;;
67768;SDS011;54569;52.018;5.584;2023-03-14T00:53:26;3.50;;;1.27;;
67768;SDS011;54569;52.018;5.584;2023-03-14T00:55:51;4.80;;;1.63;;
67768;SDS011;54569;52.018;5.584;2023-03-14T00:58:17;7.57;;;1.50;;
67768;SDS011;54569;52.018;5.584;2023-03-14T01:00:44;6.63;;;1.60;;
67768;SDS011;54569;52.018;5.584;2023-03-14T01:03:11;5.95;;;1.42;;
67768;SDS011;54569;52.018;5.584;2023-03-14T01:05:37;9.32;;;1.20;;
67768;SDS011;54569;52.018;5.584;2023-03-14T01:08:03;8.35;;;1.42;;
67768;SDS011;54569;52.018;5.584;2023-03-14T01:10:33;7.10;;;1.17;;
67768;SDS011;54569;52.018;5.584;2023-03-14T01:13:00;7.03;;;1.85;;
67768;SDS011;54569;52.018;5.584;2023-03-14T01:15:25;7.38;;;1.30;;
67768;SDS011;54569;52.018;5.584;2023-03-14T01:17:51;8.60;;;1.25;;
67768;SDS011;54569;52.018;5.584;2023-03-14T01:20:17;9.25;;;1.30;;
67768;SDS011;54569;52.018;5.584;2023-03-14T01:22:43;2.67;;;1.17;;
67768;SDS011;54569;52.018;5.584;2023-03-14T01:25:10;4.22;;;0.93;;
67768;SDS011;54569;52.018;5.584;2023-03-14T01:27:41;5.95;;;1.25;;
67768;SDS011;54569;52.018;5.584;2023-03-14T01:30:08;5.47;;;1.25;;
67768;SDS011;54569;52.018;5.584;2023-03-14T01:32:37;5.88;;;1.15;;
67768;SDS011;54569;52.018;5.584;2023-03-14T01:35:03;6.25;;;1.70;;
67768;SDS011;54569;52.018;5.584;2023-03-14T01:37:30;5.10;;;1.20;;
67768;SDS011;54569;52.018;5.584;2023-03-14T01:39:56;8.02;;;1.98;;
67768;SDS011;54569;52.018;5.584;2023-03-14T01:42:21;6.43;;;1.80;;
67768;SDS011;54569;52.018;5.584;2023-03-14T01:44:48;6.75;;;1.45;;
67768;SDS011;54569;52.018;5.584;2023-03-14T01:47:25;7.38;;;1.60;;
67768;SDS011;54569;52.018;5.584;2023-03-14T01:49:52;8.27;;;1.42;;
67768;SDS011;54569;52.018;5.584;2023-03-14T01:52:28;6.13;;;1.15;;
67768;SDS011;54569;52.018;5.584;2023-03-14T01:54:59;6.25;;;1.33;;
67768;SDS011;54569;52.018;5.584;2023-03-14T01:57:41;8.30;;;1.50;;
67768;SDS011;54569;52.018;5.584;2023-03-14T02:00:14;7.00;;;1.70;;
67768;SDS011;54569;52.018;5.584;2023-03-14T02:02:46;3.13;;;1.27;;
67768;SDS011;54569;52.018;5.584;2023-03-14T02:05:18;3.78;;;1.25;;
67768;SDS011;54569;52.018;5.584;2023-03-14T02:07:57;5.55;;;1.63;;
67768;SDS011;54569;52.018;5.584;2023-03-14T02:10:30;5.97;;;1.70;;
67768;SDS011;54569;52.018;5.584;2023-03-14T02:13:02;7.97;;;2.10;;
67768;SDS011;54569;52.018;5.584;2023-03-14T02:15:36;6.20;;;1.50;;
67768;SDS011;54569;52.018;5.584;2023-03-14T02:18:23;7.68;;;2.00;;
67768;SDS011;54569;52.018;5.584;2023-03-14T02:29:28;6.47;;;2.28;;
67768;SDS011;54569;52.018;5.584;2023-03-14T02:31:57;5.47;;;2.30;;
67768;SDS011;54569;52.018;5.584;2023-03-14T02:34:23;7.75;;;2.00;;
67768;SDS011;54569;52.018;5.584;2023-03-14T02:36:50;5.28;;;2.17;;
67768;SDS011;54569;52.018;5.584;2023-03-14T02:39:51;5.43;;;2.35;;
67768;SDS011;54569;52.018;5.584;2023-03-14T02:42:12;3.55;;;2.05;;
67768;SDS011;54569;52.018;5.584;2023-03-14T02:44:54;8.32;;;2.80;;
67768;SDS011;54569;52.018;5.584;2023-03-14T02:47:27;6.65;;;2.28;;
67768;SDS011;54569;52.018;5.584;2023-03-14T02:49:58;9.20;;;2.55;;
67768;SDS011;54569;52.018;5.584;2023-03-14T02:52:27;6.93;;;2.42;;
67768;SDS011;54569;52.018;5.584;2023-03-14T02:54:52;5.20;;;1.75;;
67768;SDS011;54569;52.018;5.584;2023-03-14T02:57:19;4.70;;;1.63;;
67768;SDS011;54569;52.018;5.584;2023-03-14T02:59:44;5.03;;;1.80;;
67768;SDS011;54569;52.018;5.584;2023-03-14T03:02:15;6.60;;;1.73;;
67768;SDS011;54569;52.018;5.584;2023-03-14T03:04:41;5.65;;;1.70;;
67768;SDS011;54569;52.018;5.584;2023-03-14T03:07:07;7.28;;;2.65;;
67768;SDS011;54569;52.018;5.584;2023-03-14T03:09:33;5.78;;;1.67;;
67768;SDS011;54569;52.018;5.584;2023-03-14T03:11:59;5.00;;;1.83;;
67768;SDS011;54569;52.018;5.584;2023-03-14T03:14:26;7.05;;;1.92;;
67768;SDS011;54569;52.018;5.584;2023-03-14T03:16:55;6.57;;;2.50;;
67768;SDS011;54569;52.018;5.584;2023-03-14T03:19:21;5.78;;;1.92;;
67768;SDS011;54569;52.018;5.584;2023-03-14T03:21:47;7.07;;;1.88;;
67768;SDS011;54569;52.018;5.584;2023-03-14T03:24:13;5.05;;;1.95;;
67768;SDS011;54569;52.018;5.584;2023-03-14T03:26:39;7.07;;;1.98;;
67768;SDS011;54569;52.018;5.584;2023-03-14T03:29:07;6.43;;;1.67;;
67768;SDS011;54569;52.018;5.584;2023-03-14T03:31:33;8.00;;;1.90;;
67768;SDS011;54569;52.018;5.584;2023-03-14T03:34:01;6.95;;;2.03;;
67768;SDS011;54569;52.018;5.584;2023-03-14T03:36:27;4.57;;;2.05;;
67768;SDS011;54569;52.018;5.584;2023-03-14T03:38:53;8.75;;;2.20;;
67768;SDS011;54569;52.018;5.584;2023-03-14T03:41:18;4.68;;;1.50;;
67768;SDS011;54569;52.018;5.584;2023-03-14T03:43:46;7.93;;;1.75;;
67768;SDS011;54569;52.018;5.584;2023-03-14T03:46:14;7.82;;;1.95;;
67768;SDS011;54569;52.018;5.584;2023-03-14T03:48:40;6.35;;;1.95;;
67768;SDS011;54569;52.018;5.584;2023-03-14T03:51:06;7.00;;;1.98;;
67768;SDS011;54569;52.018;5.584;2023-03-14T03:53:33;9.52;;;2.63;;
67768;SDS011;54569;52.018;5.584;2023-03-14T03:56:02;5.05;;;1.90;;
67768;SDS011;54569;52.018;5.584;2023-03-14T03:58:28;7.03;;;1.73;;
67768;SDS011;54569;52.018;5.584;2023-03-14T04:00:55;8.98;;;2.03;;
67768;SDS011;54569;52.018;5.584;2023-03-14T04:03:20;6.65;;;2.28;;
67768;SDS011;54569;52.018;5.584;2023-03-14T04:05:46;9.73;;;2.63;;
67768;SDS011;54569;52.018;5.584;2023-03-14T04:08:23;7.13;;;2.03;;
67768;SDS011;54569;52.018;5.584;2023-03-14T04:10:49;10.40;;;2.22;;
67768;SDS011;54569;52.018;5.584;2023-03-14T04:13:28;7.70;;;2.40;;
67768;SDS011;54569;52.018;5.584;2023-03-14T04:15:55;7.72;;;2.75;;
67768;SDS011;54569;52.018;5.584;2023-03-14T04:18:24;7.80;;;2.40;;
67768;SDS011;54569;52.018;5.584;2023-03-14T04:20:54;5.85;;;2.20;;
67768;SDS011;54569;52.018;5.584;2023-03-14T04:23:24;14.15;;;2.80;;
67768;SDS011;54569;52.018;5.584;2023-03-14T04:25:50;5.28;;;1.92;;
67768;SDS011;54569;52.018;5.584;2023-03-14T04:28:17;5.18;;;1.90;;
67768;SDS011;54569;52.018;5.584;2023-03-14T04:30:44;7.95;;;2.00;;
67768;SDS011;54569;52.018;5.584;2023-03-14T04:33:14;9.43;;;2.35;;
67768;SDS011;54569;52.018;5.584;2023-03-14T04:35:47;6.80;;;1.95;;
67768;SDS011;54569;52.018;5.584;2023-03-14T04:38:14;6.90;;;1.90;;
67768;SDS011;54569;52.018;5.584;2023-03-14T04:40:43;10.68;;;2.20;;
67768;SDS011;54569;52.018;5.584;2023-03-14T04:43:10;6.60;;;2.00;;
67768;SDS011;54569;52.018;5.584;2023-03-14T04:45:41;10.70;;;1.80;;
67768;SDS011;54569;52.018;5.584;2023-03-14T04:48:08;7.10;;;1.42;;
67768;SDS011;54569;52.018;5.584;2023-03-14T04:50:34;7.20;;;2.28;;
67768;SDS011;54569;52.018;5.584;2023-03-14T04:53:00;6.47;;;1.83;;
67768;SDS011;54569;52.018;5.584;2023-03-14T04:55:26;6.93;;;1.55;;
67768;SDS011;54569;52.018;5.584;2023-03-14T04:57:53;7.57;;;1.70;;
67768;SDS011;54569;52.018;5.584;2023-03-14T05:00:19;6.72;;;1.92;;
67768;SDS011;54569;52.018;5.584;2023-03-14T05:03:06;6.20;;;1.25;;
67768;SDS011;54569;52.018;5.584;2023-03-14T05:05:59;5.40;;;1.60;;
67768;SDS011;54569;52.018;5.584;2023-03-14T05:08:38;5.80;;;1.50;;
67768;SDS011;54569;52.018;5.584;2023-03-14T05:11:17;2.95;;;1.35;;
67768;SDS011;54569;52.018;5.584;2023-03-14T05:13:56;4.47;;;1.25;;
67768;SDS011;54569;52.018;5.584;2023-03-14T05:16:40;6.45;;;1.38;;
67768;SDS011;54569;52.018;5.584;2023-03-14T05:19:24;2.55;;;1.27;;
67768;SDS011;54569;52.018;5.584;2023-03-14T05:22:08;7.05;;;1.80;;
67768;SDS011;54569;52.018;5.584;2023-03-14T05:24:39;4.95;;;1.55;;
67768;SDS011;54569;52.018;5.584;2023-03-14T05:27:24;9.55;;;1.65;;
67768;SDS011;54569;52.018;5.584;2023-03-14T05:29:58;3.53;;;1.25;;
67768;SDS011;54569;52.018;5.584;2023-03-14T05:32:42;5.95;;;2.42;;
67768;SDS011;54569;52.018;5.584;2023-03-14T05:35:08;2.70;;;1.90;;
67768;SDS011;54569;52.018;5.584;2023-03-14T05:37:41;5.18;;;1.70;;
67768;SDS011;54569;52.018;5.584;2023-03-14T05:40:25;5.85;;;1.42;;
67768;SDS011;54569;52.018;5.584;2023-03-14T05:43:04;5.43;;;1.55;;
67768;SDS011;54569;52.018;5.584;2023-03-14T05:45:39;3.72;;;1.80;;
67768;SDS011;54569;52.018;5.584;2023-03-14T05:48:24;4.03;;;2.17;;
67768;SDS011;54569;52.018;5.584;2023-03-14T05:51:16;4.80;;;1.95;;
67768;SDS011;54569;52.018;5.584;2023-03-14T05:54:07;6.40;;;2.00;;
67768;SDS011;54569;52.018;5.584;2023-03-14T05:56:54;5.65;;;2.35;;
67768;SDS011;54569;52.018;5.584;2023-03-14T05:59:35;3.42;;;1.88;;
67768;SDS011;54569;52.018;5.584;2023-03-14T06:02:24;4.60;;;2.20;;
67768;SDS011;54569;52.018;5.584;2023-03-14T06:05:00;5.80;;;2.08;;
67768;SDS011;54569;52.018;5.584;2023-03-14T06:07:26;4.95;;;2.17;;
67768;SDS011;54569;52.018;5.584;2023-03-14T06:09:52;8.50;;;1.95;;
67768;SDS011;54569;52.018;5.584;2023-03-14T06:12:18;7.07;;;2.92;;
67768;SDS011;54569;52.018;5.584;2023-03-14T06:14:50;7.53;;;2.40;;
67768;SDS011;54569;52.018;5.584;2023-03-14T06:17:16;5.25;;;2.45;;
67768;SDS011;54569;52.018;5.584;2023-03-14T06:19:54;5.13;;;2.30;;
67768;SDS011;54569;52.018;5.584;2023-03-14T06:22:19;4.97;;;2.50;;
67768;SDS011;54569;52.018;5.584;2023-03-14T06:24:46;3.63;;;2.83;;
67768;SDS011;54569;52.018;5.584;2023-03-14T06:27:13;4.43;;;2.40;;
67768;SDS011;54569;52.018;5.584;2023-03-14T06:29:38;5.53;;;3.08;;
67768;SDS011;54569;52.018;5.584;2023-03-14T06:32:04;4.53;;;2.90;;
67768;SDS011;54569;52.018;5.584;2023-03-14T06:34:30;6.32;;;3.05;;
67768;SDS011;54569;52.018;5.584;2023-03-14T06:36:56;6.25;;;3.25;;
67768;SDS011;54569;52.018;5.584;2023-03-14T06:39:22;7.35;;;3.25;;
67768;SDS011;54569;52.018;5.584;2023-03-14T06:41:55;6.78;;;3.47;;
67768;SDS011;54569;52.018;5.584;2023-03-14T06:44:21;7.20;;;3.88;;
67768;SDS011;54569;52.018;5.584;2023-03-14T06:46:47;4.43;;;3.75;;
67768;SDS011;54569;52.018;5.584;2023-03-14T06:49:13;7.00;;;3.85;;
67768;SDS011;54569;52.018;5.584;2023-03-14T06:51:39;7.70;;;3.60;;
67768;SDS011;54569;52.018;5.584;2023-03-14T06:54:07;7.80;;;4.00;;
67768;SDS011;54569;52.018;5.584;2023-03-14T06:56:34;8.32;;;4.72;;
67768;SDS011;54569;52.018;5.584;2023-03-14T06:59:00;7.15;;;4.60;;
67768;SDS011;54569;52.018;5.584;2023-03-14T07:01:29;7.15;;;4.38;;
67768;SDS011;54569;52.018;5.584;2023-03-14T07:04:04;3.58;;;2.38;;
67768;SDS011;54569;52.018;5.584;2023-03-14T07:06:30;3.00;;;2.25;;
67768;SDS011;54569;52.018;5.584;2023-03-14T07:08:56;2.58;;;1.08;;
67768;SDS011;54569;52.018;5.584;2023-03-14T07:11:23;1.15;;;0.82;;
67768;SDS011;54569;52.018;5.584;2023-03-14T07:13:49;0.70;;;0.70;;
67768;SDS011;54569;52.018;5.584;2023-03-14T07:16:15;2.00;;;0.70;;
67768;SDS011;54569;52.018;5.584;2023-03-14T07:18:40;0.43;;;0.40;;
67768;SDS011;54569;52.018;5.584;2023-03-14T07:21:06;1.27;;;0.60;;
67768;SDS011;54569;52.018;5.584;2023-03-14T07:23:35;1.42;;;0.60;;
67768;SDS011;54569;52.018;5.584;2023-03-14T07:26:01;1.20;;;0.50;;
67768;SDS011;54569;52.018;5.584;2023-03-14T07:28:29;1.75;;;0.50;;
67768;SDS011;54569;52.018;5.584;2023-03-14T07:31:00;0.68;;;0.60;;
67768;SDS011;54569;52.018;5.584;2023-03-14T07:33:31;1.00;;;0.50;;
67768;SDS011;54569;52.018;5.584;2023-03-14T07:35:57;1.77;;;0.85;;
67768;SDS011;54569;52.018;5.584;2023-03-14T07:38:23;1.95;;;0.70;;
67768;SDS011;54569;52.018;5.584;2023-03-14T07:41:22;1.08;;;0.82;;
67768;SDS011;54569;52.018;5.584;2023-03-14T07:44:08;1.35;;;0.77;;
67768;SDS011;54569;52.018;5.584;2023-03-14T07:46:35;0.90;;;0.80;;
67768;SDS011;54569;52.018;5.584;2023-03-14T07:49:08;0.75;;;0.75;;
67768;SDS011;54569;52.018;5.584;2023-03-14T07:51:34;2.80;;;1.08;;
67768;SDS011;54569;52.018;5.584;2023-03-14T07:54:00;3.00;;;0.98;;
67768;SDS011;54569;52.018;5.584;2023-03-14T07:56:25;2.72;;;0.80;;
67768;SDS011;54569;52.018;5.584;2023-03-14T07:58:51;2.20;;;1.00;;
67768;SDS011;54569;52.018;5.584;2023-03-14T08:01:17;2.13;;;0.80;;
67768;SDS011;54569;52.018;5.584;2023-03-14T08:03:42;1.35;;;0.80;;
67768;SDS011;54569;52.018;5.584;2023-03-14T08:06:08;1.55;;;0.63;;
67768;SDS011;54569;52.018;5.584;2023-03-14T08:08:34;0.60;;;0.50;;
67768;SDS011;54569;52.018;5.584;2023-03-14T08:11:03;0.75;;;0.40;;
67768;SDS011;54569;52.018;5.584;2023-03-14T08:13:30;1.70;;;0.60;;
67768;SDS011;54569;52.018;5.584;2023-03-14T08:15:56;3.03;;;0.90;;
67768;SDS011;54569;52.018;5.584;2023-03-14T08:18:22;1.98;;;0.70;;
67768;SDS011;54569;52.018;5.584;2023-03-14T08:20:47;1.23;;;0.70;;
67768;SDS011;54569;52.018;5.584;2023-03-14T08:23:13;0.90;;;0.73;;
67768;SDS011;54569;52.018;5.584;2023-03-14T08:25:39;1.95;;;0.70;;
67768;SDS011;54569;52.018;5.584;2023-03-14T08:28:04;2.97;;;0.50;;
67768;SDS011;54569;52.018;5.584;2023-03-14T08:30:30;3.25;;;0.70;;
67768;SDS011;54569;52.018;5.584;2023-03-14T08:32:57;6.82;;;1.83;;
67768;SDS011;54569;52.018;5.584;2023-03-14T08:35:23;1.88;;;0.57;;
67768;SDS011;54569;52.018;5.584;2023-03-14T08:37:50;4.20;;;0.68;;
67768;SDS011;54569;52.018;5.584;2023-03-14T08:40:17;2.55;;;0.65;;
67768;SDS011;54569;52.018;5.584;2023-03-14T08:42:43;4.80;;;0.77;;
67768;SDS011;54569;52.018;5.584;2023-03-14T08:45:10;1.50;;;0.70;;
67768;SDS011;54569;52.018;5.584;2023-03-14T08:47:37;1.73;;;0.47;;
67768;SDS011;54569;52.018;5.584;2023-03-14T08:50:04;1.92;;;0.60;;
67768;SDS011;54569;52.018;5.584;2023-03-14T08:52:30;1.98;;;1.00;;
67768;SDS011;54569;52.018;5.584;2023-03-14T08:54:57;1.73;;;0.45;;
67768;SDS011;54569;52.018;5.584;2023-03-14T08:57:23;2.10;;;0.40;;
67768;SDS011;54569;52.018;5.584;2023-03-14T08:59:56;2.88;;;0.50;;
67768;SDS011;54569;52.018;5.584;2023-03-14T09:02:22;2.22;;;0.50;;
67768;SDS011;54569;52.018;5.584;2023-03-14T09:04:52;2.00;;;0.60;;
67768;SDS011;54569;52.018;5.584;2023-03-14T09:07:18;4.47;;;0.63;;
67768;SDS011;54569;52.018;5.584;2023-03-14T09:09:44;1.80;;;0.40;;
67768;SDS011;54569;52.018;5.584;2023-03-14T09:12:10;2.80;;;0.40;;
67768;SDS011;54569;52.018;5.584;2023-03-14T09:14:36;1.73;;;0.70;;
67768;SDS011;54569;52.018;5.584;2023-03-14T09:17:02;4.82;;;1.00;;
67768;SDS011;54569;52.018;5.584;2023-03-14T09:19:29;0.63;;;0.28;;
67768;SDS011;54569;52.018;5.584;2023-03-14T09:21:54;1.75;;;0.63;;
67768;SDS011;54569;52.018;5.584;2023-03-14T09:24:20;3.42;;;0.57;;
67768;SDS011;54569;52.018;5.584;2023-03-14T09:26:46;1.25;;;0.60;;
67768;SDS011;54569;52.018;5.584;2023-03-14T09:29:11;3.45;;;0.60;;
67768;SDS011;54569;52.018;5.584;2023-03-14T09:31:37;4.18;;;0.57;;
67768;SDS011;54569;52.018;5.584;2023-03-14T09:34:03;5.35;;;1.08;;
67768;SDS011;54569;52.018;5.584;2023-03-14T09:36:29;4.60;;;0.82;;
67768;SDS011;54569;52.018;5.584;2023-03-14T09:38:55;3.72;;;0.80;;
67768;SDS011;54569;52.018;5.584;2023-03-14T09:43:50;3.13;;;1.00;;
67768;SDS011;54569;52.018;5.584;2023-03-14T09:46:25;7.88;;;1.13;;
67768;SDS011;54569;52.018;5.584;2023-03-14T09:48:52;5.22;;;1.30;;
67768;SDS011;54569;52.018;5.584;2023-03-14T09:51:18;4.53;;;1.67;;
67768;SDS011;54569;52.018;5.584;2023-03-14T09:53:47;8.27;;;1.52;;
67768;SDS011;54569;52.018;5.584;2023-03-14T09:56:16;4.53;;;0.95;;
67768;SDS011;54569;52.018;5.584;2023-03-14T09:58:50;8.48;;;1.30;;
67768;SDS011;54569;52.018;5.584;2023-03-14T10:01:21;5.20;;;0.82;;
67768;SDS011;54569;52.018;5.584;2023-03-14T10:03:51;7.55;;;1.17;;
67768;SDS011;54569;52.018;5.584;2023-03-14T10:06:20;13.38;;;1.60;;
67768;SDS011;54569;52.018;5.584;2023-03-14T10:08:50;6.55;;;1.27;;
67768;SDS011;54569;52.018;5.584;2023-03-14T10:11:17;12.68;;;1.77;;
67768;SDS011;54569;52.018;5.584;2023-03-14T10:13:48;9.52;;;1.75;;
67768;SDS011;54569;52.018;5.584;2023-03-14T10:16:44;12.88;;;2.30;;
67768;SDS011;54569;52.018;5.584;2023-03-14T10:19:12;10.38;;;1.95;;
67768;SDS011;54569;52.018;5.584;2023-03-14T10:21:40;8.40;;;1.50;;
67768;SDS011;54569;52.018;5.584;2023-03-14T10:24:25;8.73;;;1.92;;
67768;SDS011;54569;52.018;5.584;2023-03-14T10:27:02;11.55;;;1.63;;
67768;SDS011;54569;52.018;5.584;2023-03-14T10:29:31;11.18;;;1.83;;
67768;SDS011;54569;52.018;5.584;2023-03-14T10:34:31;10.77;;;2.00;;
67768;SDS011;54569;52.018;5.584;2023-03-14T10:37:03;11.77;;;1.70;;
67768;SDS011;54569;52.018;5.584;2023-03-14T10:42:19;9.52;;;1.70;;
67768;SDS011;54569;52.018;5.584;2023-03-14T10:44:56;8.75;;;2.25;;
67768;SDS011;54569;52.018;5.584;2023-03-14T10:47:25;7.97;;;1.20;;
67768;SDS011;54569;52.018;5.584;2023-03-14T10:49:53;12.13;;;1.92;;
67768;SDS011;54569;52.018;5.584;2023-03-14T10:52:21;10.02;;;2.40;;
67768;SDS011;54569;52.018;5.584;2023-03-14T10:54:58;7.97;;;1.52;;
67768;SDS011;54569;52.018;5.584;2023-03-14T10:57:44;9.18;;;1.83;;
67768;SDS011;54569;52.018;5.584;2023-03-14T11:00:16;9.68;;;2.15;;
67768;SDS011;54569;52.018;5.584;2023-03-14T11:05:31;9.07;;;2.00;;
67768;SDS011;54569;52.018;5.584;2023-03-14T11:08:09;13.32;;;2.72;;
67768;SDS011;54569;52.018;5.584;2023-03-14T11:10:40;12.10;;;2.33;;
67768;SDS011;54569;52.018;5.584;2023-03-14T11:13:17;11.05;;;2.22;;
67768;SDS011;54569;52.018;5.584;2023-03-14T11:16:08;10.32;;;2.33;;
67768;SDS011;54569;52.018;5.584;2023-03-14T11:24:47;9.48;;;2.03;;
67768;SDS011;54569;52.018;5.584;2023-03-14T11:27:25;15.73;;;2.50;;
67768;SDS011;54569;52.018;5.584;2023-03-14T11:35:22;15.23;;;2.35;;
67768;SDS011;54569;52.018;5.584;2023-03-14T11:40:40;18.23;;;2.38;;
67768;SDS011;54569;52.018;5.584;2023-03-14T11:45:37;9.93;;;2.42;;
67768;SDS011;54569;52.018;5.584;2023-03-14T11:50:54;9.57;;;2.55;;
67768;SDS011;54569;52.018;5.584;2023-03-14T11:53:40;7.13;;;2.05;;
67768;SDS011;54569;52.018;5.584;2023-03-14T11:56:19;11.02;;;2.30;;
67768;SDS011;54569;52.018;5.584;2023-03-14T11:59:11;12.65;;;1.63;;
67768;SDS011;54569;52.018;5.584;2023-03-14T12:01:54;9.02;;;1.88;;
67768;SDS011;54569;52.018;5.584;2023-03-14T12:04:38;6.78;;;1.60;;
67768;SDS011;54569;52.018;5.584;2023-03-14T12:07:17;5.65;;;1.88;;
67768;SDS011;54569;52.018;5.584;2023-03-14T12:09:46;10.27;;;2.30;;
67768;SDS011;54569;52.018;5.584;2023-03-14T12:12:16;7.65;;;1.90;;
67768;SDS011;54569;52.018;5.584;2023-03-14T12:14:46;9.18;;;1.67;;
67768;SDS011;54569;52.018;5.584;2023-03-14T12:17:37;9.43;;;1.65;;
67768;SDS011;54569;52.018;5.584;2023-03-14T12:20:26;6.82;;;2.08;;
67768;SDS011;54569;52.018;5.584;2023-03-14T12:22:55;6.40;;;1.45;;
67768;SDS011;54569;52.018;5.584;2023-03-14T12:25:27;6.97;;;1.90;;
67768;SDS011;54569;52.018;5.584;2023-03-14T12:30:30;4.57;;;1.45;;
67768;SDS011;54569;52.018;5.584;2023-03-14T12:41:04;9.48;;;2.75;;
67768;SDS011;54569;52.018;5.584;2023-03-14T12:43:40;8.77;;;2.25;;
67768;SDS011;54569;52.018;5.584;2023-03-14T12:48:45;8.10;;;1.52;;
67768;SDS011;54569;52.018;5.584;2023-03-14T13:01:29;6.88;;;1.40;;
67768;SDS011;54569;52.018;5.584;2023-03-14T13:03:57;5.32;;;1.40;;
67768;SDS011;54569;52.018;5.584;2023-03-14T13:11:51;5.28;;;1.30;;
67768;SDS011;54569;52.018;5.584;2023-03-14T13:14:18;4.75;;;1.58;;
67768;SDS011;54569;52.018;5.584;2023-03-14T13:16:46;3.92;;;1.42;;
67768;SDS011;54569;52.018;5.584;2023-03-14T13:19:25;4.57;;;1.20;;
67768;SDS011;54569;52.018;5.584;2023-03-14T13:22:02;5.05;;;1.13;;
67768;SDS011;54569;52.018;5.584;2023-03-14T13:24:32;8.68;;;1.38;;
67768;SDS011;54569;52.018;5.584;2023-03-14T13:26:59;4.75;;;1.05;;
67768;SDS011;54569;52.018;5.584;2023-03-14T13:29:29;7.90;;;1.10;;
67768;SDS011;54569;52.018;5.584;2023-03-14T13:31:59;4.43;;;1.20;;
67768;SDS011;54569;52.018;5.584;2023-03-14T13:34:33;6.72;;;1.40;;
67768;SDS011;54569;52.018;5.584;2023-03-14T13:37:00;10.70;;;1.73;;
67768;SDS011;54569;52.018;5.584;2023-03-14T13:39:26;4.05;;;1.02;;
67768;SDS011;54569;52.018;5.584;2023-03-14T13:41:55;6.47;;;1.20;;
67768;SDS011;54569;52.018;5.584;2023-03-14T13:44:36;3.70;;;1.17;;
67768;SDS011;54569;52.018;5.584;2023-03-14T13:47:10;2.38;;;0.90;;
67768;SDS011;54569;52.018;5.584;2023-03-14T13:49:41;2.95;;;1.02;;
67768;SDS011;54569;52.018;5.584;2023-03-14T13:54:57;5.03;;;1.10;;
67768;SDS011;54569;52.018;5.584;2023-03-14T13:57:25;3.08;;;1.00;;
67768;SDS011;54569;52.018;5.584;2023-03-14T13:59:58;4.78;;;1.05;;
67768;SDS011;54569;52.018;5.584;2023-03-14T14:02:37;3.73;;;0.90;;
67768;SDS011;54569;52.018;5.584;2023-03-14T14:05:04;7.32;;;1.42;;
67768;SDS011;54569;52.018;5.584;2023-03-14T14:07:30;9.70;;;1.50;;
67768;SDS011;54569;52.018;5.584;2023-03-14T14:09:57;5.95;;;0.93;;
67768;SDS011;54569;52.018;5.584;2023-03-14T14:15:24;5.47;;;1.17;;
67768;SDS011;54569;52.018;5.584;2023-03-14T14:17:52;4.72;;;1.25;;
67768;SDS011;54569;52.018;5.584;2023-03-14T14:20:32;5.90;;;1.38;;
67768;SDS011;54569;52.018;5.584;2023-03-14T14:23:06;7.22;;;1.10;;
67768;SDS011;54569;52.018;5.584;2023-03-14T14:25:36;4.50;;;1.50;;
67768;SDS011;54569;52.018;5.584;2023-03-14T14:28:46;4.43;;;1.77;;
67768;SDS011;54569;52.018;5.584;2023-03-14T14:31:00;5.32;;;1.05;;
67768;SDS011;54569;52.018;5.584;2023-03-14T14:33:37;4.03;;;1.30;;
67768;SDS011;54569;52.018;5.584;2023-03-14T14:36:04;6.57;;;1.80;;
67768;SDS011;54569;52.018;5.584;2023-03-14T14:38:37;6.10;;;1.70;;
67768;SDS011;54569;52.018;5.584;2023-03-14T14:41:03;6.35;;;1.50;;
67768;SDS011;54569;52.018;5.584;2023-03-14T14:43:30;6.47;;;1.33;;
67768;SDS011;54569;52.018;5.584;2023-03-14T14:46:05;5.57;;;1.17;;
67768;SDS011;54569;52.018;5.584;2023-03-14T14:48:35;4.63;;;0.98;;
67768;SDS011;54569;52.018;5.584;2023-03-14T14:51:04;4.28;;;1.02;;
67768;SDS011;54569;52.018;5.584;2023-03-14T14:53:38;7.65;;;1.35;;
67768;SDS011;54569;52.018;5.584;2023-03-14T14:56:27;7.88;;;1.42;;
67768;SDS011;54569;52.018;5.584;2023-03-14T14:59:00;5.55;;;1.33;;
67768;SDS011;54569;52.018;5.584;2023-03-14T15:01:34;9.48;;;1.42;;
67768;SDS011;54569;52.018;5.584;2023-03-14T15:04:01;6.20;;;1.30;;
67768;SDS011;54569;52.018;5.584;2023-03-14T15:06:34;8.63;;;0.95;;
67768;SDS011;54569;52.018;5.584;2023-03-14T15:09:00;4.75;;;1.23;;
67768;SDS011;54569;52.018;5.584;2023-03-14T15:11:25;4.13;;;1.35;;
67768;SDS011;54569;52.018;5.584;2023-03-14T15:13:52;6.38;;;1.17;;
67768;SDS011;54569;52.018;5.584;2023-03-14T15:16:19;4.07;;;1.15;;
67768;SDS011;54569;52.018;5.584;2023-03-14T15:18:57;5.18;;;1.02;;
67768;SDS011;54569;52.018;5.584;2023-03-14T15:21:25;2.20;;;1.13;;
67768;SDS011;54569;52.018;5.584;2023-03-14T15:23:52;3.80;;;0.80;;
67768;SDS011;54569;52.018;5.584;2023-03-14T15:26:19;4.45;;;1.05;;
67768;SDS011;54569;52.018;5.584;2023-03-14T15:28:47;9.38;;;1.10;;
67768;SDS011;54569;52.018;5.584;2023-03-14T15:31:14;8.30;;;1.17;;
67768;SDS011;54569;52.018;5.584;2023-03-14T15:33:42;3.97;;;1.00;;
67768;SDS011;54569;52.018;5.584;2023-03-14T15:36:31;3.72;;;0.90;;
67768;SDS011;54569;52.018;5.584;2023-03-14T15:38:56;5.05;;;1.20;;
67768;SDS011;54569;52.018;5.584;2023-03-14T15:41:24;6.00;;;1.20;;
67768;SDS011;54569;52.018;5.584;2023-03-14T15:43:51;4.20;;;1.20;;
67768;SDS011;54569;52.018;5.584;2023-03-14T15:46:17;8.73;;;1.55;;
67768;SDS011;54569;52.018;5.584;2023-03-14T15:48:44;6.32;;;1.40;;
67768;SDS011;54569;52.018;5.584;2023-03-14T15:51:10;4.32;;;1.75;;
67768;SDS011;54569;52.018;5.584;2023-03-14T15:53:36;4.45;;;1.15;;
67768;SDS011;54569;52.018;5.584;2023-03-14T15:56:03;4.20;;;0.80;;
67768;SDS011;54569;52.018;5.584;2023-03-14T15:58:29;5.93;;;1.20;;
67768;SDS011;54569;52.018;5.584;2023-03-14T16:00:58;5.15;;;1.67;;
67768;SDS011;54569;52.018;5.584;2023-03-14T16:03:26;4.28;;;1.30;;
67768;SDS011;54569;52.018;5.584;2023-03-14T16:05:53;6.88;;;1.40;;
67768;SDS011;54569;52.018;5.584;2023-03-14T16:08:18;4.47;;;1.10;;
67768;SDS011;54569;52.018;5.584;2023-03-14T16:10:45;4.05;;;1.33;;
67768;SDS011;54569;52.018;5.584;2023-03-14T16:13:11;8.48;;;1.40;;
67768;SDS011;54569;52.018;5.584;2023-03-14T16:15:37;5.80;;;1.35;;
67768;SDS011;54569;52.018;5.584;2023-03-14T16:18:03;3.35;;;0.93;;